sensor_id;sensor_type;location;lat;lon;timestamp;P1;durP1;ratioP1;P2;durP2;ratioP2
10801;SDS011;5453;50.852;7.102;2023-02-21T00:01:34;18.85;;;7.35;;
10801;SDS011;5453;50.852;7.102;2023-02-21T00:04:24;13.00;;;5.95;;
10801;SDS011;5453;50.852;7.102;2023-02-21T00:07:14;13.88;;;6.20;;
10801;SDS011;5453;50.852;7.102;2023-02-21T00:10:04;12.55;;;5.82;;
10801;SDS011;5453;50.852;7.102;2023-02-21T00:12:56;12.80;;;5.97;;
10801;SDS011;5453;50.852;7.102;2023-02-21T00:15:46;15.18;;;6.50;;
10801;SDS011;5453;50.852;7.102;2023-02-21T00:18:35;16.55;;;7.30;;
10801;SDS011;5453;50.852;7.102;2023-02-21T00:21:26;18.25;;;6.93;;
10801;SDS011;5453;50.852;7.102;2023-02-21T00:24:17;14.18;;;6.50;;
10801;SDS011;5453;50.852;7.102;2023-02-21T00:27:07;13.43;;;6.18;;
10801;SDS011;5453;50.852;7.102;2023-02-21T00:29:59;12.90;;;5.72;;
10801;SDS011;5453;50.852;7.102;2023-02-21T00:32:49;13.32;;;5.93;;
10801;SDS011;5453;50.852;7.102;2023-02-21T00:35:39;15.18;;;5.72;;
10801;SDS011;5453;50.852;7.102;2023-02-21T00:38:28;13.10;;;5.05;;
10801;SDS011;5453;50.852;7.102;2023-02-21T00:41:20;12.63;;;5.68;;
10801;SDS011;5453;50.852;7.102;2023-02-21T00:44:10;14.45;;;5.50;;
10801;SDS011;5453;50.852;7.102;2023-02-21T00:47:01;13.15;;;5.45;;
10801;SDS011;5453;50.852;7.102;2023-02-21T00:49:50;11.95;;;5.38;;
10801;SDS011;5453;50.852;7.102;2023-02-21T00:52:40;12.05;;;5.32;;
10801;SDS011;5453;50.852;7.102;2023-02-21T00:55:30;13.93;;;5.85;;
10801;SDS011;5453;50.852;7.102;2023-02-21T00:58:19;14.40;;;5.93;;
10801;SDS011;5453;50.852;7.102;2023-02-21T01:01:09;13.60;;;5.75;;
10801;SDS011;5453;50.852;7.102;2023-02-21T01:04:00;14.30;;;6.00;;
10801;SDS011;5453;50.852;7.102;2023-02-21T01:06:50;13.90;;;5.40;;
10801;SDS011;5453;50.852;7.102;2023-02-21T01:09:40;11.75;;;5.22;;
10801;SDS011;5453;50.852;7.102;2023-02-21T01:12:29;15.50;;;6.53;;
10801;SDS011;5453;50.852;7.102;2023-02-21T01:15:19;12.80;;;5.50;;
10801;SDS011;5453;50.852;7.102;2023-02-21T01:18:08;11.98;;;5.85;;
10801;SDS011;5453;50.852;7.102;2023-02-21T01:20:59;11.90;;;5.50;;
10801;SDS011;5453;50.852;7.102;2023-02-21T01:23:49;16.00;;;6.63;;
10801;SDS011;5453;50.852;7.102;2023-02-21T01:26:41;20.75;;;9.02;;
10801;SDS011;5453;50.852;7.102;2023-02-21T01:29:31;20.00;;;7.32;;
10801;SDS011;5453;50.852;7.102;2023-02-21T01:32:20;17.33;;;7.20;;
10801;SDS011;5453;50.852;7.102;2023-02-21T01:35:10;16.27;;;6.88;;
10801;SDS011;5453;50.852;7.102;2023-02-21T01:38:03;13.35;;;6.25;;
10801;SDS011;5453;50.852;7.102;2023-02-21T01:40:53;20.23;;;8.07;;
10801;SDS011;5453;50.852;7.102;2023-02-21T01:43:55;22.27;;;7.38;;
10801;SDS011;5453;50.852;7.102;2023-02-21T01:46:47;14.68;;;6.30;;
10801;SDS011;5453;50.852;7.102;2023-02-21T01:49:37;18.15;;;7.63;;
10801;SDS011;5453;50.852;7.102;2023-02-21T01:52:29;13.93;;;5.95;;
10801;SDS011;5453;50.852;7.102;2023-02-21T01:55:20;15.63;;;6.88;;
10801;SDS011;5453;50.852;7.102;2023-02-21T01:58:09;15.05;;;6.20;;
10801;SDS011;5453;50.852;7.102;2023-02-21T02:00:59;16.30;;;6.35;;
10801;SDS011;5453;50.852;7.102;2023-02-21T02:03:48;14.10;;;6.25;;
10801;SDS011;5453;50.852;7.102;2023-02-21T02:06:38;14.98;;;6.68;;
10801;SDS011;5453;50.852;7.102;2023-02-21T02:09:28;14.60;;;5.95;;
10801;SDS011;5453;50.852;7.102;2023-02-21T02:12:26;14.05;;;5.78;;
10801;SDS011;5453;50.852;7.102;2023-02-21T02:15:23;15.55;;;6.32;;
10801;SDS011;5453;50.852;7.102;2023-02-21T02:18:27;14.00;;;6.05;;
10801;SDS011;5453;50.852;7.102;2023-02-21T02:24:59;15.45;;;6.40;;
10801;SDS011;5453;50.852;7.102;2023-02-21T02:27:52;13.15;;;6.20;;
10801;SDS011;5453;50.852;7.102;2023-02-21T02:37:27;13.13;;;6.18;;
10801;SDS011;5453;50.852;7.102;2023-02-21T02:40:09;13.45;;;6.00;;
10801;SDS011;5453;50.852;7.102;2023-02-21T02:42:55;13.73;;;6.60;;
10801;SDS011;5453;50.852;7.102;2023-02-21T02:48:10;14.90;;;6.90;;
10801;SDS011;5453;50.852;7.102;2023-02-21T02:50:48;15.00;;;6.93;;
10801;SDS011;5453;50.852;7.102;2023-02-21T02:53:24;13.63;;;6.65;;
10801;SDS011;5453;50.852;7.102;2023-02-21T02:56:01;17.10;;;7.38;;
10801;SDS011;5453;50.852;7.102;2023-02-21T02:58:39;16.65;;;7.40;;
10801;SDS011;5453;50.852;7.102;2023-02-21T03:01:21;16.48;;;7.55;;
10801;SDS011;5453;50.852;7.102;2023-02-21T03:04:20;15.52;;;7.28;;
10801;SDS011;5453;50.852;7.102;2023-02-21T03:07:12;16.05;;;6.85;;
10801;SDS011;5453;50.852;7.102;2023-02-21T03:09:54;14.18;;;6.57;;
10801;SDS011;5453;50.852;7.102;2023-02-21T03:12:36;17.40;;;8.20;;
10801;SDS011;5453;50.852;7.102;2023-02-21T03:15:16;15.88;;;7.78;;
10801;SDS011;5453;50.852;7.102;2023-02-21T03:17:53;15.55;;;7.28;;
10801;SDS011;5453;50.852;7.102;2023-02-21T03:20:31;17.17;;;7.25;;
10801;SDS011;5453;50.852;7.102;2023-02-21T03:23:05;17.35;;;8.18;;
10801;SDS011;5453;50.852;7.102;2023-02-21T03:25:39;16.90;;;7.20;;
10801;SDS011;5453;50.852;7.102;2023-02-21T03:28:13;15.82;;;7.15;;
10801;SDS011;5453;50.852;7.102;2023-02-21T03:30:48;15.10;;;6.85;;
10801;SDS011;5453;50.852;7.102;2023-02-21T03:33:26;21.27;;;8.55;;
10801;SDS011;5453;50.852;7.102;2023-02-21T03:35:59;17.23;;;7.55;;
10801;SDS011;5453;50.852;7.102;2023-02-21T03:38:36;15.15;;;6.60;;
10801;SDS011;5453;50.852;7.102;2023-02-21T03:41:08;15.23;;;6.35;;
10801;SDS011;5453;50.852;7.102;2023-02-21T03:43:43;15.45;;;7.15;;
10801;SDS011;5453;50.852;7.102;2023-02-21T03:46:16;17.25;;;6.97;;
10801;SDS011;5453;50.852;7.102;2023-02-21T03:48:49;14.05;;;6.55;;
10801;SDS011;5453;50.852;7.102;2023-02-21T03:51:27;14.10;;;6.50;;
10801;SDS011;5453;50.852;7.102;2023-02-21T03:54:03;15.32;;;6.68;;
10801;SDS011;5453;50.852;7.102;2023-02-21T03:56:42;14.73;;;6.75;;
10801;SDS011;5453;50.852;7.102;2023-02-21T03:59:24;14.07;;;6.43;;
10801;SDS011;5453;50.852;7.102;2023-02-21T04:01:57;16.25;;;6.95;;
10801;SDS011;5453;50.852;7.102;2023-02-21T04:04:32;15.30;;;6.40;;
10801;SDS011;5453;50.852;7.102;2023-02-21T04:07:10;15.75;;;6.88;;
10801;SDS011;5453;50.852;7.102;2023-02-21T04:09:44;15.75;;;6.90;;
10801;SDS011;5453;50.852;7.102;2023-02-21T04:12:20;15.32;;;5.97;;
10801;SDS011;5453;50.852;7.102;2023-02-21T04:14:53;15.57;;;6.15;;
10801;SDS011;5453;50.852;7.102;2023-02-21T04:17:28;14.68;;;6.70;;
10801;SDS011;5453;50.852;7.102;2023-02-21T04:20:01;23.17;;;9.05;;
10801;SDS011;5453;50.852;7.102;2023-02-21T04:22:39;21.02;;;8.55;;
10801;SDS011;5453;50.852;7.102;2023-02-21T04:25:13;22.25;;;9.27;;
10801;SDS011;5453;50.852;7.102;2023-02-21T04:27:52;22.83;;;9.20;;
10801;SDS011;5453;50.852;7.102;2023-02-21T04:30:25;20.88;;;8.05;;
10801;SDS011;5453;50.852;7.102;2023-02-21T04:32:58;16.00;;;7.63;;
10801;SDS011;5453;50.852;7.102;2023-02-21T04:35:32;15.48;;;7.30;;
10801;SDS011;5453;50.852;7.102;2023-02-21T04:38:10;26.90;;;9.73;;
10801;SDS011;5453;50.852;7.102;2023-02-21T04:40:43;21.23;;;9.38;;
10801;SDS011;5453;50.852;7.102;2023-02-21T04:43:16;22.85;;;9.10;;
10801;SDS011;5453;50.852;7.102;2023-02-21T04:45:50;20.67;;;8.85;;
10801;SDS011;5453;50.852;7.102;2023-02-21T04:48:22;20.73;;;8.68;;
10801;SDS011;5453;50.852;7.102;2023-02-21T04:50:54;19.83;;;7.68;;
10801;SDS011;5453;50.852;7.102;2023-02-21T04:53:27;20.33;;;8.63;;
10801;SDS011;5453;50.852;7.102;2023-02-21T04:56:00;23.48;;;8.93;;
10801;SDS011;5453;50.852;7.102;2023-02-21T04:58:32;18.45;;;7.95;;
10801;SDS011;5453;50.852;7.102;2023-02-21T05:01:05;18.35;;;7.85;;
10801;SDS011;5453;50.852;7.102;2023-02-21T05:03:37;21.13;;;8.43;;
10801;SDS011;5453;50.852;7.102;2023-02-21T05:06:09;17.92;;;7.28;;
10801;SDS011;5453;50.852;7.102;2023-02-21T05:08:46;16.40;;;7.60;;
10801;SDS011;5453;50.852;7.102;2023-02-21T05:11:21;17.95;;;7.75;;
10801;SDS011;5453;50.852;7.102;2023-02-21T05:13:53;17.73;;;7.25;;
10801;SDS011;5453;50.852;7.102;2023-02-21T05:16:26;19.02;;;7.32;;
10801;SDS011;5453;50.852;7.102;2023-02-21T05:18:58;19.85;;;8.55;;
10801;SDS011;5453;50.852;7.102;2023-02-21T05:21:33;19.17;;;7.22;;
10801;SDS011;5453;50.852;7.102;2023-02-21T05:24:08;17.40;;;7.18;;
10801;SDS011;5453;50.852;7.102;2023-02-21T05:26:42;20.05;;;8.00;;
10801;SDS011;5453;50.852;7.102;2023-02-21T05:29:15;18.70;;;6.85;;
10801;SDS011;5453;50.852;7.102;2023-02-21T05:31:47;18.17;;;7.25;;
10801;SDS011;5453;50.852;7.102;2023-02-21T05:34:19;15.98;;;6.38;;
10801;SDS011;5453;50.852;7.102;2023-02-21T05:36:51;14.27;;;6.05;;
10801;SDS011;5453;50.852;7.102;2023-02-21T05:39:23;14.95;;;6.22;;
10801;SDS011;5453;50.852;7.102;2023-02-21T05:41:57;15.23;;;6.07;;
10801;SDS011;5453;50.852;7.102;2023-02-21T05:44:29;13.88;;;6.45;;
10801;SDS011;5453;50.852;7.102;2023-02-21T05:47:01;13.32;;;6.25;;
10801;SDS011;5453;50.852;7.102;2023-02-21T05:49:33;14.38;;;5.88;;
10801;SDS011;5453;50.852;7.102;2023-02-21T05:52:06;13.32;;;6.07;;
10801;SDS011;5453;50.852;7.102;2023-02-21T05:54:40;16.20;;;6.32;;
10801;SDS011;5453;50.852;7.102;2023-02-21T05:57:14;14.15;;;5.93;;
10801;SDS011;5453;50.852;7.102;2023-02-21T05:59:46;14.57;;;6.20;;
10801;SDS011;5453;50.852;7.102;2023-02-21T06:02:19;14.20;;;5.85;;
10801;SDS011;5453;50.852;7.102;2023-02-21T06:04:51;14.77;;;6.07;;
10801;SDS011;5453;50.852;7.102;2023-02-21T06:07:23;12.00;;;5.15;;
10801;SDS011;5453;50.852;7.102;2023-02-21T06:09:55;13.25;;;5.40;;
10801;SDS011;5453;50.852;7.102;2023-02-21T06:12:29;10.50;;;5.13;;
10801;SDS011;5453;50.852;7.102;2023-02-21T06:15:01;10.45;;;4.68;;
10801;SDS011;5453;50.852;7.102;2023-02-21T06:17:36;13.18;;;5.43;;
10801;SDS011;5453;50.852;7.102;2023-02-21T06:20:10;14.82;;;5.47;;
10801;SDS011;5453;50.852;7.102;2023-02-21T06:22:45;13.65;;;6.13;;
10801;SDS011;5453;50.852;7.102;2023-02-21T06:25:18;13.93;;;5.35;;
10801;SDS011;5453;50.852;7.102;2023-02-21T06:27:52;15.35;;;6.28;;
10801;SDS011;5453;50.852;7.102;2023-02-21T06:30:24;17.42;;;6.78;;
10801;SDS011;5453;50.852;7.102;2023-02-21T06:32:56;15.48;;;7.20;;
10801;SDS011;5453;50.852;7.102;2023-02-21T06:35:29;16.77;;;7.10;;
10801;SDS011;5453;50.852;7.102;2023-02-21T06:38:01;16.88;;;6.72;;
10801;SDS011;5453;50.852;7.102;2023-02-21T06:40:33;16.73;;;6.68;;
10801;SDS011;5453;50.852;7.102;2023-02-21T06:43:07;14.90;;;6.00;;
10801;SDS011;5453;50.852;7.102;2023-02-21T06:45:39;15.70;;;6.63;;
10801;SDS011;5453;50.852;7.102;2023-02-21T06:48:13;17.30;;;6.80;;
10801;SDS011;5453;50.852;7.102;2023-02-21T06:50:46;15.20;;;6.05;;
10801;SDS011;5453;50.852;7.102;2023-02-21T06:53:18;17.00;;;6.65;;
10801;SDS011;5453;50.852;7.102;2023-02-21T06:55:51;16.27;;;6.95;;
10801;SDS011;5453;50.852;7.102;2023-02-21T06:58:25;16.35;;;6.72;;
10801;SDS011;5453;50.852;7.102;2023-02-21T07:00:57;14.25;;;5.93;;
10801;SDS011;5453;50.852;7.102;2023-02-21T07:03:29;13.32;;;5.57;;
10801;SDS011;5453;50.852;7.102;2023-02-21T07:06:01;11.85;;;5.10;;
10801;SDS011;5453;50.852;7.102;2023-02-21T07:08:34;13.55;;;5.10;;
10801;SDS011;5453;50.852;7.102;2023-02-21T07:11:06;11.82;;;5.15;;
10801;SDS011;5453;50.852;7.102;2023-02-21T07:13:41;11.98;;;5.50;;
10801;SDS011;5453;50.852;7.102;2023-02-21T07:16:20;13.63;;;5.38;;
10801;SDS011;5453;50.852;7.102;2023-02-21T07:18:52;14.23;;;5.90;;
10801;SDS011;5453;50.852;7.102;2023-02-21T07:21:25;11.82;;;5.20;;
10801;SDS011;5453;50.852;7.102;2023-02-21T07:23:57;17.33;;;6.47;;
10801;SDS011;5453;50.852;7.102;2023-02-21T07:26:30;11.60;;;5.47;;
10801;SDS011;5453;50.852;7.102;2023-02-21T07:29:04;18.65;;;7.93;;
10801;SDS011;5453;50.852;7.102;2023-02-21T07:31:37;14.32;;;6.22;;
10801;SDS011;5453;50.852;7.102;2023-02-21T07:34:09;15.68;;;6.25;;
10801;SDS011;5453;50.852;7.102;2023-02-21T07:36:42;13.80;;;5.68;;
10801;SDS011;5453;50.852;7.102;2023-02-21T07:39:14;15.57;;;6.45;;
10801;SDS011;5453;50.852;7.102;2023-02-21T07:41:47;13.88;;;5.88;;
10801;SDS011;5453;50.852;7.102;2023-02-21T07:44:28;14.40;;;5.97;;
10801;SDS011;5453;50.852;7.102;2023-02-21T07:47:01;14.40;;;5.78;;
10801;SDS011;5453;50.852;7.102;2023-02-21T07:49:35;14.80;;;5.95;;
10801;SDS011;5453;50.852;7.102;2023-02-21T07:54:40;15.45;;;6.03;;
10801;SDS011;5453;50.852;7.102;2023-02-21T07:57:13;13.32;;;5.72;;
10801;SDS011;5453;50.852;7.102;2023-02-21T07:59:48;14.02;;;5.50;;
10801;SDS011;5453;50.852;7.102;2023-02-21T08:02:20;13.27;;;5.63;;
10801;SDS011;5453;50.852;7.102;2023-02-21T08:04:53;14.07;;;5.38;;
10801;SDS011;5453;50.852;7.102;2023-02-21T08:07:25;13.75;;;5.25;;
10801;SDS011;5453;50.852;7.102;2023-02-21T08:09:57;13.95;;;5.38;;
10801;SDS011;5453;50.852;7.102;2023-02-21T08:12:29;13.40;;;4.88;;
10801;SDS011;5453;50.852;7.102;2023-02-21T08:15:03;21.15;;;8.68;;
10801;SDS011;5453;50.852;7.102;2023-02-21T08:17:37;15.82;;;6.55;;
10801;SDS011;5453;50.852;7.102;2023-02-21T08:20:10;14.82;;;6.07;;
10801;SDS011;5453;50.852;7.102;2023-02-21T08:22:42;20.35;;;7.57;;
10801;SDS011;5453;50.852;7.102;2023-02-21T08:25:15;21.75;;;7.57;;
10801;SDS011;5453;50.852;7.102;2023-02-21T08:27:48;19.20;;;6.28;;
10801;SDS011;5453;50.852;7.102;2023-02-21T08:30:25;15.27;;;5.78;;
10801;SDS011;5453;50.852;7.102;2023-02-21T08:32:58;12.38;;;5.25;;
10801;SDS011;5453;50.852;7.102;2023-02-21T08:35:30;12.20;;;5.15;;
10801;SDS011;5453;50.852;7.102;2023-02-21T08:38:03;12.98;;;5.28;;
10801;SDS011;5453;50.852;7.102;2023-02-21T08:40:35;15.43;;;5.38;;
10801;SDS011;5453;50.852;7.102;2023-02-21T08:43:08;12.93;;;5.38;;
10801;SDS011;5453;50.852;7.102;2023-02-21T08:45:41;13.65;;;5.35;;
10801;SDS011;5453;50.852;7.102;2023-02-21T08:48:14;13.23;;;5.55;;
10801;SDS011;5453;50.852;7.102;2023-02-21T08:50:46;13.60;;;5.43;;
10801;SDS011;5453;50.852;7.102;2023-02-21T08:53:19;13.90;;;5.70;;
10801;SDS011;5453;50.852;7.102;2023-02-21T08:55:51;14.40;;;5.90;;
10801;SDS011;5453;50.852;7.102;2023-02-21T08:58:23;15.18;;;6.07;;
10801;SDS011;5453;50.852;7.102;2023-02-21T09:00:57;15.95;;;6.70;;
10801;SDS011;5453;50.852;7.102;2023-02-21T09:03:29;19.80;;;7.78;;
10801;SDS011;5453;50.852;7.102;2023-02-21T09:06:01;17.38;;;7.00;;
10801;SDS011;5453;50.852;7.102;2023-02-21T09:08:34;19.83;;;7.68;;
10801;SDS011;5453;50.852;7.102;2023-02-21T09:11:07;18.70;;;6.88;;
10801;SDS011;5453;50.852;7.102;2023-02-21T09:13:40;18.45;;;7.85;;
10801;SDS011;5453;50.852;7.102;2023-02-21T09:16:13;20.75;;;7.22;;
10801;SDS011;5453;50.852;7.102;2023-02-21T09:18:51;19.63;;;7.00;;
10801;SDS011;5453;50.852;7.102;2023-02-21T09:21:26;18.48;;;6.85;;
10801;SDS011;5453;50.852;7.102;2023-02-21T09:23:59;19.08;;;6.60;;
10801;SDS011;5453;50.852;7.102;2023-02-21T09:26:32;16.00;;;6.38;;
10801;SDS011;5453;50.852;7.102;2023-02-21T09:29:05;17.67;;;6.25;;
10801;SDS011;5453;50.852;7.102;2023-02-21T09:31:38;21.17;;;8.18;;
10801;SDS011;5453;50.852;7.102;2023-02-21T09:34:11;20.58;;;6.50;;
10801;SDS011;5453;50.852;7.102;2023-02-21T09:36:43;19.50;;;7.47;;
10801;SDS011;5453;50.852;7.102;2023-02-21T09:39:16;17.27;;;6.82;;
10801;SDS011;5453;50.852;7.102;2023-02-21T09:41:49;18.75;;;7.43;;
10801;SDS011;5453;50.852;7.102;2023-02-21T09:44:25;18.33;;;6.72;;
10801;SDS011;5453;50.852;7.102;2023-02-21T09:47:01;21.52;;;7.35;;
10801;SDS011;5453;50.852;7.102;2023-02-21T09:49:37;19.45;;;7.25;;
10801;SDS011;5453;50.852;7.102;2023-02-21T09:52:14;22.75;;;7.68;;
10801;SDS011;5453;50.852;7.102;2023-02-21T09:54:53;20.98;;;7.40;;
10801;SDS011;5453;50.852;7.102;2023-02-21T09:57:28;22.48;;;7.55;;
10801;SDS011;5453;50.852;7.102;2023-02-21T10:00:01;22.40;;;7.95;;
10801;SDS011;5453;50.852;7.102;2023-02-21T10:02:45;21.67;;;7.88;;
10801;SDS011;5453;50.852;7.102;2023-02-21T10:05:30;23.98;;;8.30;;
10801;SDS011;5453;50.852;7.102;2023-02-21T10:08:15;26.08;;;9.30;;
10801;SDS011;5453;50.852;7.102;2023-02-21T10:10:54;23.27;;;8.30;;
10801;SDS011;5453;50.852;7.102;2023-02-21T10:13:34;20.67;;;7.88;;
10801;SDS011;5453;50.852;7.102;2023-02-21T10:16:12;24.05;;;8.52;;
10801;SDS011;5453;50.852;7.102;2023-02-21T10:18:55;27.23;;;8.80;;
10801;SDS011;5453;50.852;7.102;2023-02-21T10:21:38;25.45;;;9.30;;
10801;SDS011;5453;50.852;7.102;2023-02-21T10:24:16;29.52;;;9.63;;
10801;SDS011;5453;50.852;7.102;2023-02-21T10:26:52;29.92;;;10.27;;
10801;SDS011;5453;50.852;7.102;2023-02-21T10:29:34;27.52;;;9.35;;
10801;SDS011;5453;50.852;7.102;2023-02-21T10:32:12;23.65;;;8.82;;
10801;SDS011;5453;50.852;7.102;2023-02-21T10:34:46;26.45;;;9.23;;
10801;SDS011;5453;50.852;7.102;2023-02-21T10:37:23;23.95;;;8.48;;
10801;SDS011;5453;50.852;7.102;2023-02-21T10:40:15;22.95;;;8.25;;
10801;SDS011;5453;50.852;7.102;2023-02-21T10:43:00;28.27;;;9.98;;
10801;SDS011;5453;50.852;7.102;2023-02-21T10:45:39;27.77;;;9.73;;
10801;SDS011;5453;50.852;7.102;2023-02-21T10:48:16;26.98;;;10.25;;
10801;SDS011;5453;50.852;7.102;2023-02-21T10:51:03;30.60;;;10.57;;
10801;SDS011;5453;50.852;7.102;2023-02-21T10:53:39;33.50;;;11.38;;
10801;SDS011;5453;50.852;7.102;2023-02-21T10:56:22;29.50;;;10.82;;
10801;SDS011;5453;50.852;7.102;2023-02-21T10:58:58;31.50;;;10.55;;
10801;SDS011;5453;50.852;7.102;2023-02-21T11:01:35;33.33;;;11.32;;
10801;SDS011;5453;50.852;7.102;2023-02-21T11:04:26;37.03;;;11.73;;
10801;SDS011;5453;50.852;7.102;2023-02-21T11:07:05;35.92;;;11.95;;
10801;SDS011;5453;50.852;7.102;2023-02-21T11:09:39;31.65;;;11.73;;
10801;SDS011;5453;50.852;7.102;2023-02-21T11:12:18;35.80;;;12.20;;
10801;SDS011;5453;50.852;7.102;2023-02-21T11:18:01;34.30;;;11.65;;
10801;SDS011;5453;50.852;7.102;2023-02-21T11:20:36;34.85;;;11.98;;
10801;SDS011;5453;50.852;7.102;2023-02-21T11:26:04;32.63;;;11.45;;
10801;SDS011;5453;50.852;7.102;2023-02-21T11:28:39;36.00;;;12.23;;
10801;SDS011;5453;50.852;7.102;2023-02-21T11:31:15;30.65;;;11.25;;
10801;SDS011;5453;50.852;7.102;2023-02-21T11:33:57;36.50;;;12.88;;
10801;SDS011;5453;50.852;7.102;2023-02-21T11:36:32;35.30;;;12.18;;
10801;SDS011;5453;50.852;7.102;2023-02-21T11:39:14;33.72;;;11.60;;
10801;SDS011;5453;50.852;7.102;2023-02-21T11:41:51;34.45;;;11.98;;
10801;SDS011;5453;50.852;7.102;2023-02-21T11:44:26;27.63;;;10.40;;
10801;SDS011;5453;50.852;7.102;2023-02-21T11:47:04;29.40;;;11.38;;
10801;SDS011;5453;50.852;7.102;2023-02-21T11:49:47;26.23;;;9.80;;
10801;SDS011;5453;50.852;7.102;2023-02-21T11:52:33;23.50;;;8.80;;
10801;SDS011;5453;50.852;7.102;2023-02-21T11:55:12;24.13;;;8.27;;
10801;SDS011;5453;50.852;7.102;2023-02-21T11:57:49;26.98;;;9.35;;
10801;SDS011;5453;50.852;7.102;2023-02-21T12:00:29;23.13;;;8.65;;
10801;SDS011;5453;50.852;7.102;2023-02-21T12:03:23;23.95;;;8.65;;
10801;SDS011;5453;50.852;7.102;2023-02-21T12:06:16;21.70;;;8.63;;
10801;SDS011;5453;50.852;7.102;2023-02-21T12:08:59;23.88;;;9.05;;
10801;SDS011;5453;50.852;7.102;2023-02-21T12:14:43;23.75;;;9.10;;
10801;SDS011;5453;50.852;7.102;2023-02-21T12:17:45;26.50;;;9.85;;
10801;SDS011;5453;50.852;7.102;2023-02-21T12:20:37;23.27;;;9.07;;
10801;SDS011;5453;50.852;7.102;2023-02-21T12:23:56;30.25;;;11.70;;
10801;SDS011;5453;50.852;7.102;2023-02-21T12:26:43;30.63;;;11.25;;
10801;SDS011;5453;50.852;7.102;2023-02-21T12:29:32;31.15;;;11.95;;
10801;SDS011;5453;50.852;7.102;2023-02-21T12:42:00;32.67;;;12.35;;
10801;SDS011;5453;50.852;7.102;2023-02-21T12:45:06;30.38;;;11.50;;
10801;SDS011;5453;50.852;7.102;2023-02-21T12:47:58;28.10;;;10.63;;
10801;SDS011;5453;50.852;7.102;2023-02-21T12:50:37;24.55;;;9.85;;
10801;SDS011;5453;50.852;7.102;2023-02-21T12:53:14;26.23;;;9.48;;
10801;SDS011;5453;50.852;7.102;2023-02-21T12:55:51;28.92;;;10.85;;
10801;SDS011;5453;50.852;7.102;2023-02-21T12:58:31;23.92;;;10.02;;
10801;SDS011;5453;50.852;7.102;2023-02-21T13:01:11;25.75;;;10.35;;
10801;SDS011;5453;50.852;7.102;2023-02-21T13:03:51;25.00;;;10.40;;
10801;SDS011;5453;50.852;7.102;2023-02-21T13:06:34;27.38;;;10.38;;
10801;SDS011;5453;50.852;7.102;2023-02-21T13:09:14;28.83;;;11.18;;
10801;SDS011;5453;50.852;7.102;2023-02-21T13:11:57;22.88;;;8.70;;
10801;SDS011;5453;50.852;7.102;2023-02-21T13:14:37;21.33;;;8.73;;
10801;SDS011;5453;50.852;7.102;2023-02-21T13:17:16;22.48;;;9.35;;
10801;SDS011;5453;50.852;7.102;2023-02-21T13:19:51;23.17;;;9.18;;
10801;SDS011;5453;50.852;7.102;2023-02-21T13:26:30;20.48;;;8.50;;
10801;SDS011;5453;50.852;7.102;2023-02-21T13:29:21;22.15;;;9.05;;
10801;SDS011;5453;50.852;7.102;2023-02-21T13:31:58;25.77;;;9.70;;
10801;SDS011;5453;50.852;7.102;2023-02-21T13:34:36;21.10;;;9.05;;
10801;SDS011;5453;50.852;7.102;2023-02-21T13:37:12;19.77;;;8.10;;
10801;SDS011;5453;50.852;7.102;2023-02-21T13:39:48;20.48;;;8.05;;
10801;SDS011;5453;50.852;7.102;2023-02-21T13:42:25;21.08;;;8.13;;
10801;SDS011;5453;50.852;7.102;2023-02-21T13:45:09;18.73;;;8.13;;
10801;SDS011;5453;50.852;7.102;2023-02-21T13:50:53;22.05;;;8.65;;
10801;SDS011;5453;50.852;7.102;2023-02-21T13:53:27;22.63;;;8.63;;
10801;SDS011;5453;50.852;7.102;2023-02-21T13:56:13;20.65;;;8.68;;
10801;SDS011;5453;50.852;7.102;2023-02-21T13:58:48;21.98;;;8.52;;
10801;SDS011;5453;50.852;7.102;2023-02-21T14:01:21;26.02;;;10.13;;
10801;SDS011;5453;50.852;7.102;2023-02-21T14:10:38;29.70;;;10.48;;
10801;SDS011;5453;50.852;7.102;2023-02-21T14:13:17;24.25;;;8.45;;
10801;SDS011;5453;50.852;7.102;2023-02-21T14:15:57;20.92;;;9.18;;
10801;SDS011;5453;50.852;7.102;2023-02-21T14:18:41;29.75;;;10.60;;
10801;SDS011;5453;50.852;7.102;2023-02-21T14:21:20;26.10;;;10.25;;
10801;SDS011;5453;50.852;7.102;2023-02-21T14:23:59;27.50;;;10.73;;
10801;SDS011;5453;50.852;7.102;2023-02-21T14:26:42;22.63;;;10.07;;
10801;SDS011;5453;50.852;7.102;2023-02-21T14:29:29;24.38;;;9.30;;
10801;SDS011;5453;50.852;7.102;2023-02-21T14:32:16;25.27;;;10.23;;
10801;SDS011;5453;50.852;7.102;2023-02-21T14:34:57;23.58;;;9.07;;
10801;SDS011;5453;50.852;7.102;2023-02-21T14:37:32;27.92;;;10.25;;
10801;SDS011;5453;50.852;7.102;2023-02-21T14:40:16;33.53;;;12.45;;
10801;SDS011;5453;50.852;7.102;2023-02-21T14:43:00;28.27;;;11.77;;
10801;SDS011;5453;50.852;7.102;2023-02-21T14:46:24;28.95;;;11.07;;
10801;SDS011;5453;50.852;7.102;2023-02-21T14:52:59;28.17;;;10.18;;
10801;SDS011;5453;50.852;7.102;2023-02-21T14:56:14;24.63;;;9.38;;
10801;SDS011;5453;50.852;7.102;2023-02-21T14:59:22;29.67;;;10.35;;
10801;SDS011;5453;50.852;7.102;2023-02-21T15:02:25;24.55;;;8.93;;
10801;SDS011;5453;50.852;7.102;2023-02-21T15:05:05;23.15;;;8.90;;
10801;SDS011;5453;50.852;7.102;2023-02-21T15:07:50;35.92;;;12.27;;
10801;SDS011;5453;50.852;7.102;2023-02-21T15:10:30;26.15;;;9.07;;
10801;SDS011;5453;50.852;7.102;2023-02-21T15:13:05;19.85;;;8.35;;
10801;SDS011;5453;50.852;7.102;2023-02-21T15:15:55;26.73;;;10.10;;
10801;SDS011;5453;50.852;7.102;2023-02-21T15:18:30;22.80;;;8.52;;
10801;SDS011;5453;50.852;7.102;2023-02-21T15:21:05;27.65;;;9.63;;
10801;SDS011;5453;50.852;7.102;2023-02-21T15:23:48;25.88;;;10.20;;
10801;SDS011;5453;50.852;7.102;2023-02-21T15:26:32;26.52;;;10.15;;
10801;SDS011;5453;50.852;7.102;2023-02-21T15:29:06;27.67;;;10.65;;
10801;SDS011;5453;50.852;7.102;2023-02-21T15:31:41;24.50;;;10.73;;
10801;SDS011;5453;50.852;7.102;2023-02-21T15:34:19;25.00;;;9.65;;
10801;SDS011;5453;50.852;7.102;2023-02-21T15:36:57;30.33;;;11.30;;
10801;SDS011;5453;50.852;7.102;2023-02-21T15:39:35;22.38;;;8.90;;
10801;SDS011;5453;50.852;7.102;2023-02-21T15:42:11;25.35;;;8.55;;
10801;SDS011;5453;50.852;7.102;2023-02-21T15:44:51;28.85;;;10.65;;
10801;SDS011;5453;50.852;7.102;2023-02-21T15:47:27;28.95;;;10.32;;
10801;SDS011;5453;50.852;7.102;2023-02-21T15:50:03;30.38;;;11.55;;
10801;SDS011;5453;50.852;7.102;2023-02-21T15:52:40;22.77;;;9.27;;
10801;SDS011;5453;50.852;7.102;2023-02-21T15:55:25;31.83;;;10.40;;
10801;SDS011;5453;50.852;7.102;2023-02-21T15:58:01;25.65;;;9.68;;
10801;SDS011;5453;50.852;7.102;2023-02-21T16:00:46;28.45;;;10.88;;
10801;SDS011;5453;50.852;7.102;2023-02-21T16:03:27;36.97;;;12.98;;
10801;SDS011;5453;50.852;7.102;2023-02-21T16:06:11;30.27;;;10.32;;
10801;SDS011;5453;50.852;7.102;2023-02-21T16:08:52;31.20;;;10.68;;
10801;SDS011;5453;50.852;7.102;2023-02-21T16:11:38;29.80;;;11.00;;
10801;SDS011;5453;50.852;7.102;2023-02-21T16:14:19;27.73;;;11.25;;
10801;SDS011;5453;50.852;7.102;2023-02-21T16:17:08;33.17;;;10.77;;
10801;SDS011;5453;50.852;7.102;2023-02-21T16:19:52;33.22;;;12.40;;
10801;SDS011;5453;50.852;7.102;2023-02-21T16:22:28;30.15;;;11.57;;
10801;SDS011;5453;50.852;7.102;2023-02-21T16:27:55;33.83;;;11.75;;
10801;SDS011;5453;50.852;7.102;2023-02-21T16:30:30;40.03;;;13.38;;
10801;SDS011;5453;50.852;7.102;2023-02-21T16:33:06;40.33;;;14.27;;
10801;SDS011;5453;50.852;7.102;2023-02-21T16:35:40;45.88;;;15.82;;
10801;SDS011;5453;50.852;7.102;2023-02-21T16:38:14;40.05;;;13.60;;
10801;SDS011;5453;50.852;7.102;2023-02-21T16:40:49;41.33;;;13.65;;
10801;SDS011;5453;50.852;7.102;2023-02-21T16:43:22;40.00;;;13.40;;
10801;SDS011;5453;50.852;7.102;2023-02-21T16:45:56;38.47;;;13.70;;
10801;SDS011;5453;50.852;7.102;2023-02-21T16:48:30;44.78;;;14.88;;
10801;SDS011;5453;50.852;7.102;2023-02-21T16:51:04;38.60;;;12.68;;
10801;SDS011;5453;50.852;7.102;2023-02-21T16:53:43;38.97;;;12.77;;